createdAt,value
2023-03-23T15:59:00.125Z,74.30
2023-03-23T16:01:33.506Z,74.70
2023-03-23T16:04:12.864Z,74.10
2023-03-23T16:06:45.352Z,74.10
2023-03-23T16:09:21.615Z,75.10
2023-03-23T16:11:53.168Z,75.00
2023-03-23T16:14:24.510Z,75.10
2023-03-23T16:16:56.100Z,75.60
2023-03-23T16:19:28.620Z,76.30
2023-03-23T16:21:59.765Z,75.90
2023-03-23T16:24:31.208Z,76.20
2023-03-23T16:27:02.478Z,76.90
2023-03-23T16:32:09.015Z,76.70
2023-03-23T16:34:41.810Z,76.60
2023-03-23T16:37:19.875Z,77.00
2023-03-23T16:39:50.107Z,76.80
2023-03-23T16:42:21.593Z,75.80
2023-03-23T16:44:52.581Z,76.20
2023-03-23T16:47:25.626Z,76.20
2023-03-23T16:49:56.724Z,76.50
2023-03-23T16:52:29.698Z,77.70
2023-03-23T16:55:01.141Z,78.10
2023-03-23T16:57:32.587Z,78.20
2023-03-23T17:00:03.989Z,78.50
2023-03-23T17:02:38.977Z,78.10
2023-03-23T17:05:11.863Z,78.20
2023-03-23T17:07:46.325Z,78.90
2023-03-23T17:10:18.460Z,78.40
2023-03-23T17:12:49.815Z,78.70
2023-03-23T17:15:21.559Z,78.00
2023-03-23T17:17:53.349Z,78.40
2023-03-23T17:20:25.014Z,77.90
2023-03-23T17:22:56.286Z,78.30
2023-03-23T17:25:27.255Z,77.80
2023-03-23T17:28:05.553Z,78.10
2023-03-23T17:30:30.983Z,78.20
2023-03-23T17:33:02.010Z,78.30
2023-03-23T17:35:33.072Z,78.80
2023-03-23T17:38:04.282Z,77.70
2023-03-23T17:40:35.666Z,77.00
2023-03-23T17:43:07.930Z,77.70
2023-03-23T17:45:40.368Z,78.40
2023-03-23T17:48:11.922Z,78.60
2023-03-23T17:50:43.199Z,78.50
2023-03-23T17:53:14.408Z,78.10
2023-03-23T17:55:46.410Z,77.80
2023-03-23T17:58:18.428Z,77.70
2023-03-23T18:00:50.818Z,77.20
2023-03-23T18:03:22.011Z,77.50
2023-03-23T18:05:56.436Z,77.50
2023-03-23T18:08:31.068Z,78.20
2023-03-23T18:11:02.701Z,78.60
2023-03-23T18:13:37.213Z,79.60
2023-03-23T18:16:09.078Z,79.90
2023-03-23T18:18:40.817Z,80.20
2023-03-23T18:21:15.764Z,80.00
2023-03-23T18:23:58.275Z,79.70
2023-03-23T18:26:19.874Z,79.30
2023-03-23T18:28:53.117Z,77.90
2023-03-23T18:31:24.568Z,78.10
2023-03-23T18:33:56.417Z,78.40
2023-03-23T18:36:29.454Z,77.90
2023-03-23T18:39:01.210Z,77.80
2023-03-23T18:41:36.512Z,78.30
2023-03-23T18:44:09.135Z,78.60
2023-03-23T18:46:47.787Z,78.50
2023-03-23T18:49:19.183Z,78.20
2023-03-23T18:51:50.313Z,78.40
2023-03-23T18:54:21.424Z,78.40
2023-03-23T18:56:53.039Z,79.10
2023-03-23T18:59:25.244Z,79.30
2023-03-23T19:01:57.543Z,79.80
2023-03-23T19:04:30.178Z,79.70
2023-03-23T19:07:02.650Z,79.70
2023-03-23T19:09:35.876Z,79.10
2023-03-23T19:12:07.447Z,79.30
2023-03-23T19:14:40.416Z,79.20
2023-03-23T19:17:12.185Z,79.20
2023-03-23T19:19:43.821Z,79.70
2023-03-23T19:22:16.058Z,79.80
2023-03-23T19:24:47.761Z,81.00
2023-03-23T19:27:21.452Z,81.00
2023-03-23T19:29:53.079Z,81.10
2023-03-23T19:32:24.283Z,81.40
2023-03-23T19:34:55.497Z,80.70
2023-03-23T19:37:26.843Z,80.50
2023-03-23T19:39:59.293Z,80.60
2023-03-23T19:45:03.443Z,81.00
2023-03-23T19:47:35.664Z,81.40
2023-03-23T19:50:26.954Z,82.00
2023-03-23T19:52:59.544Z,82.20
2023-03-23T19:55:35.589Z,81.90
2023-03-23T19:58:06.848Z,81.50
2023-03-23T20:00:38.153Z,81.10
2023-03-23T20:03:09.410Z,81.90
2023-03-23T20:05:40.952Z,80.80
2023-03-23T20:08:12.745Z,79.30
2023-03-23T20:10:43.993Z,79.20
2023-03-23T20:13:15.205Z,78.60
2023-03-23T20:15:46.550Z,78.90
2023-03-23T20:18:19.118Z,78.80
2023-03-23T20:20:52.683Z,79.00
2023-03-23T20:23:24.057Z,79.70
2023-03-23T20:25:55.071Z,79.30
2023-03-23T20:28:28.441Z,78.80
2023-03-23T20:31:20.944Z,77.90
2023-03-23T20:33:45.709Z,79.00
2023-03-23T20:36:18.935Z,78.80
2023-03-23T20:38:51.651Z,79.80
2023-03-23T20:41:23.845Z,79.80
2023-03-23T20:43:55.416Z,80.70
2023-03-23T20:46:26.983Z,79.90
2023-03-23T20:48:58.646Z,79.60
2023-03-23T20:51:29.745Z,79.60
2023-03-23T20:54:02.048Z,80.10
2023-03-23T20:56:33.670Z,79.90
2023-03-23T20:59:05.161Z,80.20
2023-03-23T21:01:36.424Z,80.00
2023-03-23T21:04:09.265Z,80.30
2023-03-23T21:06:40.305Z,80.40
2023-03-23T21:09:11.524Z,80.60
2023-03-23T21:11:43.165Z,80.40
2023-03-23T21:14:15.262Z,80.30
2023-03-23T21:16:46.700Z,80.20
2023-03-23T21:19:18.194Z,79.70
2023-03-23T21:21:55.369Z,79.50
2023-03-23T21:24:23.294Z,79.10
2023-03-23T21:26:55.661Z,79.40
2023-03-23T21:29:27.025Z,79.70
2023-03-23T21:34:30.962Z,79.80
2023-03-23T21:37:02.491Z,79.60
2023-03-23T21:39:34.755Z,79.70
2023-03-23T21:42:07.406Z,79.90
2023-03-23T21:44:40.194Z,79.70
2023-03-23T21:47:16.093Z,79.70
2023-03-23T21:49:47.416Z,79.90
2023-03-23T21:52:19.048Z,80.20
2023-03-23T21:54:50.269Z,80.30
2023-03-23T21:57:21.991Z,80.70
2023-03-23T21:59:53.340Z,81.10
2023-03-23T22:02:24.583Z,81.30
2023-03-23T22:07:48.094Z,81.40
2023-03-23T22:10:19.532Z,81.50
2023-03-23T22:12:54.334Z,82.90
2023-03-23T22:15:26.409Z,82.50
2023-03-23T22:18:01.085Z,82.50
2023-03-23T22:20:33.581Z,82.80
2023-03-23T22:23:04.879Z,82.60
2023-03-23T22:25:37.649Z,82.60
2023-03-23T22:33:47.844Z,82.70
2023-03-23T22:36:19.899Z,82.40
2023-03-23T22:38:52.574Z,82.00
2023-03-23T22:41:26.583Z,82.90
2023-03-23T22:43:58.125Z,82.10
2023-03-23T22:49:17.287Z,82.70
2023-03-23T22:51:48.594Z,82.90
2023-03-23T22:54:20.452Z,82.90
2023-03-23T22:56:52.274Z,82.70
2023-03-23T22:59:23.582Z,82.30
2023-03-23T23:01:54.933Z,82.50
2023-03-23T23:04:26.101Z,83.00
2023-03-23T23:07:10.059Z,83.00
2023-03-23T23:12:18.302Z,82.50
2023-03-23T23:14:49.282Z,81.80
2023-03-23T23:17:20.300Z,80.90
2023-03-23T23:19:51.900Z,80.40
2023-03-23T23:22:23.238Z,80.30
2023-03-23T23:27:42.435Z,80.10
2023-03-23T23:30:14.990Z,80.40
2023-03-23T23:32:46.382Z,81.20
2023-03-23T23:35:18.861Z,80.60
2023-03-23T23:37:50.772Z,81.10
2023-03-23T23:40:22.825Z,81.20
2023-03-23T23:42:54.479Z,82.30
2023-03-23T23:45:25.539Z,83.60
2023-03-23T23:47:56.948Z,82.80
2023-03-23T23:50:28.212Z,83.00
2023-03-23T23:53:00.202Z,82.50
2023-03-23T23:55:32.562Z,81.40
2023-03-23T23:58:04.030Z,80.50
